Dallas, TX (75233)

3:05 PM CDT on March 28, 2017 (GMT -0500)
MC1331 | | Change Station

Elev 623 ft 32.71 °N, 96.90 °W | Updated 1 day ago

Haze
Haze
65.0 °F
Feels Like 65.0 °F
N
1.0
Wind Variable Wind from NW

Today
High -- | Low -- °F
--% Chance of Precip.
Yesterday
High -- | Low -- °F
Precip. -- in
Pressure 29.73 in
Visibility 6.0 miles
Clouds Scattered Clouds 2600 ft
Mostly Cloudy 3500 ft
Overcast 5500 ft
Dew Point Not available.
Humidity Not available.
Rainfall in
Snow Depth Not available.
7:20 AM 7:44 PM
New Moon, 1% visible
METAR KRBD 281953Z AUTO 14015KT 6SM HZ SCT026 BKN035 OVC055 26/20 A2975 RMK AO2 SLP068 T02560200
Pressure 29.73 in
Visibility 6.0 miles
Clouds Scattered Clouds 2600 ft
Mostly Cloudy 3500 ft
Overcast 5500 ft
Dew Point Not available.
Humidity Not available.
Rainfall in
Snow Depth Not available.
7:20 AM 7:44 PM
New Moon, 1% visible
METAR KRBD 281953Z AUTO 14015KT 6SM HZ SCT026 BKN035 OVC055 26/20 A2975 RMK AO2 SLP068 T02560200

Get Severe Weather Alerts

Thanks for signing up!

Be on the lookout for a verification email in your inbox.

You'll start receiving the daily forecast at 8 AM.

×

10-Day Weather Forecast

Almanac

Astronomy

Mar. 28, 2017 Rise Set
Actual Time
Civil Twilight
Nautical Twilight
Astronomical Twilight
Moon
Length of Visible Light
Length of Day
Tomorrow will be .
, % of the Moon is Illuminated

Today's Extremes

State Highs State Lows

Community

WunderPhotos

Upload Photos

1,962,540 photos uploaded!

WunderBlog® & News

Nearby

Air Quality

  Air Quality AQ Index Pollutant
Not available.

Snow Depth

Station Depth Elevation

Earthquake Activity

City Distance Mag. Time & Date
Minimum magnitude displayed is 2.5.

Earthquake Activity

City Distance Mag. Time & Date
Minimum magnitude displayed is 2.5.

Coastal Water Temperatures

Place Temperature

Stations

Nearby Weather Stations

Station Location Temp. Windchill Dew Point Humidity Wind Precip. Elev Updated Type
                   

Watches & Warnings

There are currently no watches in effect.